sensor_id;sensor_type;location;lat;lon;timestamp;temperature;humidity
15574;DHT22;7888;46.748;8.102;2023-09-19T15:41:14;27.20;47.00
15574;DHT22;7888;46.748;8.102;2023-09-19T15:43:40;27.10;47.50
15574;DHT22;7888;46.748;8.102;2023-09-19T15:46:06;27.10;47.60
15574;DHT22;7888;46.748;8.102;2023-09-19T15:48:31;27.10;47.80
15574;DHT22;7888;46.748;8.102;2023-09-19T15:51:03;27.10;47.40
15574;DHT22;7888;46.748;8.102;2023-09-19T15:53:45;27.10;47.30
15574;DHT22;7888;46.748;8.102;2023-09-19T15:56:12;27.10;46.70
15574;DHT22;7888;46.748;8.102;2023-09-19T15:58:46;27.10;46.80
15574;DHT22;7888;46.748;8.102;2023-09-19T16:01:13;27.10;46.80
15574;DHT22;7888;46.748;8.102;2023-09-19T16:03:43;27.10;46.80
15574;DHT22;7888;46.748;8.102;2023-09-19T16:06:19;27.10;46.40
15574;DHT22;7888;46.748;8.102;2023-09-19T16:08:49;27.10;46.30
15574;DHT22;7888;46.748;8.102;2023-09-19T16:11:17;27.10;46.30
15574;DHT22;7888;46.748;8.102;2023-09-19T16:13:47;27.10;46.80
15574;DHT22;7888;46.748;8.102;2023-09-19T16:16:15;27.00;46.80
15574;DHT22;7888;46.748;8.102;2023-09-19T16:18:52;27.00;47.10
15574;DHT22;7888;46.748;8.102;2023-09-19T16:21:32;26.90;46.90
15574;DHT22;7888;46.748;8.102;2023-09-19T16:24:00;26.90;47.30
15574;DHT22;7888;46.748;8.102;2023-09-19T16:26:27;26.80;46.90
15574;DHT22;7888;46.748;8.102;2023-09-19T16:28:55;26.80;46.90
15574;DHT22;7888;46.748;8.102;2023-09-19T16:31:26;26.70;46.80
15574;DHT22;7888;46.748;8.102;2023-09-19T16:33:53;26.60;46.80
15574;DHT22;7888;46.748;8.102;2023-09-19T16:36:20;26.60;47.00
15574;DHT22;7888;46.748;8.102;2023-09-19T16:38:49;26.50;47.30
15574;DHT22;7888;46.748;8.102;2023-09-19T16:41:15;26.50;47.50
15574;DHT22;7888;46.748;8.102;2023-09-19T16:43:42;26.40;47.70
15574;DHT22;7888;46.748;8.102;2023-09-19T16:46:09;26.30;47.80
15574;DHT22;7888;46.748;8.102;2023-09-19T16:48:39;26.30;48.00
15574;DHT22;7888;46.748;8.102;2023-09-19T16:51:07;26.20;48.10
15574;DHT22;7888;46.748;8.102;2023-09-19T16:53:36;26.10;48.10
15574;DHT22;7888;46.748;8.102;2023-09-19T16:56:04;26.10;48.30
15574;DHT22;7888;46.748;8.102;2023-09-19T16:58:38;26.00;48.50
15574;DHT22;7888;46.748;8.102;2023-09-19T17:01:09;25.90;48.40
15574;DHT22;7888;46.748;8.102;2023-09-19T17:03:37;25.90;48.40
15574;DHT22;7888;46.748;8.102;2023-09-19T17:06:12;25.80;48.20
15574;DHT22;7888;46.748;8.102;2023-09-19T17:08:41;25.80;48.50
15574;DHT22;7888;46.748;8.102;2023-09-19T17:11:11;25.70;48.60
15574;DHT22;7888;46.748;8.102;2023-09-19T17:13:40;25.60;48.70
15574;DHT22;7888;46.748;8.102;2023-09-19T17:16:08;25.60;48.80
15574;DHT22;7888;46.748;8.102;2023-09-19T17:18:37;25.50;48.80
15574;DHT22;7888;46.748;8.102;2023-09-19T17:21:05;25.50;48.70
15574;DHT22;7888;46.748;8.102;2023-09-19T17:23:33;25.40;48.70
15574;DHT22;7888;46.748;8.102;2023-09-19T17:26:00;25.30;48.80
15574;DHT22;7888;46.748;8.102;2023-09-19T17:28:32;25.20;48.70
15574;DHT22;7888;46.748;8.102;2023-09-19T17:30:59;25.10;48.80
15574;DHT22;7888;46.748;8.102;2023-09-19T17:33:27;25.10;49.00
15574;DHT22;7888;46.748;8.102;2023-09-19T17:38:35;24.90;49.20
15574;DHT22;7888;46.748;8.102;2023-09-19T17:41:06;24.90;49.20
15574;DHT22;7888;46.748;8.102;2023-09-19T17:43:35;24.80;49.30
15574;DHT22;7888;46.748;8.102;2023-09-19T17:46:14;24.80;49.30
15574;DHT22;7888;46.748;8.102;2023-09-19T17:48:42;24.70;49.20
15574;DHT22;7888;46.748;8.102;2023-09-19T17:51:09;24.60;49.30
15574;DHT22;7888;46.748;8.102;2023-09-19T17:53:39;24.50;49.30
15574;DHT22;7888;46.748;8.102;2023-09-19T17:56:08;24.50;49.30
15574;DHT22;7888;46.748;8.102;2023-09-19T17:58:35;24.40;49.50
15574;DHT22;7888;46.748;8.102;2023-09-19T18:01:11;24.40;49.80
15574;DHT22;7888;46.748;8.102;2023-09-19T18:03:39;24.30;50.10
15574;DHT22;7888;46.748;8.102;2023-09-19T18:06:09;24.30;49.90
15574;DHT22;7888;46.748;8.102;2023-09-19T18:08:36;24.20;50.50
15574;DHT22;7888;46.748;8.102;2023-09-19T18:11:03;24.10;49.90
15574;DHT22;7888;46.748;8.102;2023-09-19T18:13:30;24.10;50.00
15574;DHT22;7888;46.748;8.102;2023-09-19T18:15:56;24.00;50.80
15574;DHT22;7888;46.748;8.102;2023-09-19T18:18:24;24.00;50.20
15574;DHT22;7888;46.748;8.102;2023-09-19T18:20:51;23.90;50.30
15574;DHT22;7888;46.748;8.102;2023-09-19T18:23:17;23.90;50.40
15574;DHT22;7888;46.748;8.102;2023-09-19T18:25:44;23.80;50.30
15574;DHT22;7888;46.748;8.102;2023-09-19T18:28:11;23.80;50.20
15574;DHT22;7888;46.748;8.102;2023-09-19T18:30:38;23.70;50.40
15574;DHT22;7888;46.748;8.102;2023-09-19T18:33:04;23.70;50.40
15574;DHT22;7888;46.748;8.102;2023-09-19T18:35:33;23.60;50.30
15574;DHT22;7888;46.748;8.102;2023-09-19T18:38:00;23.50;50.40
15574;DHT22;7888;46.748;8.102;2023-09-19T18:40:26;23.50;50.50
15574;DHT22;7888;46.748;8.102;2023-09-19T18:42:52;23.40;50.60
15574;DHT22;7888;46.748;8.102;2023-09-19T18:45:18;23.40;50.60
15574;DHT22;7888;46.748;8.102;2023-09-19T18:47:45;23.30;50.70
15574;DHT22;7888;46.748;8.102;2023-09-19T18:50:12;23.30;50.60
15574;DHT22;7888;46.748;8.102;2023-09-19T18:52:39;23.20;50.70
15574;DHT22;7888;46.748;8.102;2023-09-19T18:55:08;23.20;51.40
15574;DHT22;7888;46.748;8.102;2023-09-19T18:57:41;23.10;51.00
15574;DHT22;7888;46.748;8.102;2023-09-19T19:00:07;23.10;51.10
15574;DHT22;7888;46.748;8.102;2023-09-19T19:02:36;23.00;51.10
15574;DHT22;7888;46.748;8.102;2023-09-19T19:05:05;23.00;51.20
15574;DHT22;7888;46.748;8.102;2023-09-19T19:07:34;22.90;51.20
15574;DHT22;7888;46.748;8.102;2023-09-19T19:10:01;22.90;51.20
15574;DHT22;7888;46.748;8.102;2023-09-19T19:12:30;22.80;51.20
15574;DHT22;7888;46.748;8.102;2023-09-19T19:14:57;22.70;51.20
15574;DHT22;7888;46.748;8.102;2023-09-19T19:17:26;22.70;51.30
15574;DHT22;7888;46.748;8.102;2023-09-19T19:19:53;22.70;51.20
15574;DHT22;7888;46.748;8.102;2023-09-19T19:22:20;22.60;51.30
15574;DHT22;7888;46.748;8.102;2023-09-19T19:24:46;22.60;51.40
15574;DHT22;7888;46.748;8.102;2023-09-19T19:27:12;22.50;51.50
15574;DHT22;7888;46.748;8.102;2023-09-19T19:29:38;22.50;51.60
15574;DHT22;7888;46.748;8.102;2023-09-19T19:32:04;22.40;51.50
15574;DHT22;7888;46.748;8.102;2023-09-19T19:34:30;22.40;51.60
15574;DHT22;7888;46.748;8.102;2023-09-19T19:36:58;22.30;51.60
15574;DHT22;7888;46.748;8.102;2023-09-19T19:39:24;22.30;51.70
15574;DHT22;7888;46.748;8.102;2023-09-19T19:41:51;22.30;51.70
15574;DHT22;7888;46.748;8.102;2023-09-19T19:44:17;22.20;51.80
15574;DHT22;7888;46.748;8.102;2023-09-19T19:46:46;22.20;51.80
15574;DHT22;7888;46.748;8.102;2023-09-19T19:49:13;22.10;51.80
15574;DHT22;7888;46.748;8.102;2023-09-19T19:51:39;22.10;52.00
15574;DHT22;7888;46.748;8.102;2023-09-19T19:54:07;22.10;52.00
15574;DHT22;7888;46.748;8.102;2023-09-19T19:56:35;22.10;52.10
15574;DHT22;7888;46.748;8.102;2023-09-19T19:59:01;22.00;52.10
15574;DHT22;7888;46.748;8.102;2023-09-19T20:01:28;22.00;52.10
15574;DHT22;7888;46.748;8.102;2023-09-19T20:03:55;21.90;52.20
15574;DHT22;7888;46.748;8.102;2023-09-19T20:06:21;21.90;52.20
15574;DHT22;7888;46.748;8.102;2023-09-19T20:08:49;21.80;52.30
15574;DHT22;7888;46.748;8.102;2023-09-19T20:11:17;21.80;52.40
15574;DHT22;7888;46.748;8.102;2023-09-19T20:13:44;21.80;52.60
15574;DHT22;7888;46.748;8.102;2023-09-19T20:16:11;21.80;52.70
15574;DHT22;7888;46.748;8.102;2023-09-19T20:18:38;21.70;52.50
15574;DHT22;7888;46.748;8.102;2023-09-19T20:21:09;21.70;52.40
15574;DHT22;7888;46.748;8.102;2023-09-19T20:23:43;21.70;52.60
15574;DHT22;7888;46.748;8.102;2023-09-19T20:26:10;21.60;52.50
15574;DHT22;7888;46.748;8.102;2023-09-19T20:28:37;21.60;52.60
15574;DHT22;7888;46.748;8.102;2023-09-19T20:31:10;21.60;52.50
15574;DHT22;7888;46.748;8.102;2023-09-19T20:33:37;21.60;52.90
15574;DHT22;7888;46.748;8.102;2023-09-19T20:36:04;21.50;52.80
15574;DHT22;7888;46.748;8.102;2023-09-19T20:38:33;21.50;52.60
15574;DHT22;7888;46.748;8.102;2023-09-19T20:40:59;21.50;52.60
15574;DHT22;7888;46.748;8.102;2023-09-19T20:43:29;21.40;52.80
15574;DHT22;7888;46.748;8.102;2023-09-19T20:45:55;21.40;53.10
15574;DHT22;7888;46.748;8.102;2023-09-19T20:48:21;21.40;53.20
15574;DHT22;7888;46.748;8.102;2023-09-19T20:50:47;21.30;53.10
15574;DHT22;7888;46.748;8.102;2023-09-19T20:53:13;21.30;53.30
15574;DHT22;7888;46.748;8.102;2023-09-19T20:55:39;21.30;53.60
15574;DHT22;7888;46.748;8.102;2023-09-19T20:58:05;21.30;53.60
15574;DHT22;7888;46.748;8.102;2023-09-19T21:00:32;21.20;53.60
15574;DHT22;7888;46.748;8.102;2023-09-19T21:02:59;21.30;53.50
15574;DHT22;7888;46.748;8.102;2023-09-19T21:05:25;21.30;53.60
15574;DHT22;7888;46.748;8.102;2023-09-19T21:07:51;21.20;53.70
15574;DHT22;7888;46.748;8.102;2023-09-19T21:10:17;21.20;53.80
15574;DHT22;7888;46.748;8.102;2023-09-19T21:12:43;21.20;53.70
15574;DHT22;7888;46.748;8.102;2023-09-19T21:15:10;21.20;53.60
15574;DHT22;7888;46.748;8.102;2023-09-19T21:17:37;21.20;53.70
15574;DHT22;7888;46.748;8.102;2023-09-19T21:20:10;21.20;53.80
15574;DHT22;7888;46.748;8.102;2023-09-19T21:22:39;21.20;54.10
15574;DHT22;7888;46.748;8.102;2023-09-19T21:25:05;21.20;54.00
15574;DHT22;7888;46.748;8.102;2023-09-19T21:27:34;21.10;53.70
15574;DHT22;7888;46.748;8.102;2023-09-19T21:30:00;21.10;53.90
15574;DHT22;7888;46.748;8.102;2023-09-19T21:32:26;21.10;53.90
15574;DHT22;7888;46.748;8.102;2023-09-19T21:34:52;21.10;53.90
15574;DHT22;7888;46.748;8.102;2023-09-19T21:37:18;21.10;53.90
15574;DHT22;7888;46.748;8.102;2023-09-19T21:39:44;21.10;53.80
15574;DHT22;7888;46.748;8.102;2023-09-19T21:42:09;21.00;53.80
15574;DHT22;7888;46.748;8.102;2023-09-19T21:44:36;21.00;53.90
15574;DHT22;7888;46.748;8.102;2023-09-19T21:47:02;21.00;54.10
15574;DHT22;7888;46.748;8.102;2023-09-19T21:49:28;20.90;54.00
15574;DHT22;7888;46.748;8.102;2023-09-19T21:51:55;20.90;54.20
15574;DHT22;7888;46.748;8.102;2023-09-19T21:54:21;20.90;54.10
15574;DHT22;7888;46.748;8.102;2023-09-19T21:56:47;20.90;54.20
15574;DHT22;7888;46.748;8.102;2023-09-19T21:59:14;20.90;54.30
15574;DHT22;7888;46.748;8.102;2023-09-19T22:01:43;20.90;54.30
15574;DHT22;7888;46.748;8.102;2023-09-19T22:04:08;20.80;54.30
15574;DHT22;7888;46.748;8.102;2023-09-19T22:06:37;20.80;54.40
15574;DHT22;7888;46.748;8.102;2023-09-19T22:09:03;20.80;54.60
15574;DHT22;7888;46.748;8.102;2023-09-19T22:11:30;20.70;54.60
15574;DHT22;7888;46.748;8.102;2023-09-19T22:13:56;20.70;54.70
15574;DHT22;7888;46.748;8.102;2023-09-19T22:16:22;20.70;54.90
15574;DHT22;7888;46.748;8.102;2023-09-19T22:18:47;20.70;55.00
15574;DHT22;7888;46.748;8.102;2023-09-19T22:21:18;20.70;55.10
15574;DHT22;7888;46.748;8.102;2023-09-19T22:23:48;20.70;55.80
15574;DHT22;7888;46.748;8.102;2023-09-19T22:26:21;20.60;55.30
15574;DHT22;7888;46.748;8.102;2023-09-19T22:28:52;20.60;55.30
15574;DHT22;7888;46.748;8.102;2023-09-19T22:31:24;20.60;55.30
15574;DHT22;7888;46.748;8.102;2023-09-19T22:34:02;20.60;55.40
15574;DHT22;7888;46.748;8.102;2023-09-19T22:36:31;20.70;55.40
15574;DHT22;7888;46.748;8.102;2023-09-19T22:39:04;20.70;55.40
15574;DHT22;7888;46.748;8.102;2023-09-19T22:41:31;20.70;55.50
15574;DHT22;7888;46.748;8.102;2023-09-19T22:43:57;20.70;55.70
15574;DHT22;7888;46.748;8.102;2023-09-19T22:46:25;20.70;55.80
15574;DHT22;7888;46.748;8.102;2023-09-19T22:48:53;20.70;55.80
15574;DHT22;7888;46.748;8.102;2023-09-19T22:51:19;20.70;55.80
15574;DHT22;7888;46.748;8.102;2023-09-19T22:53:49;20.70;55.70
15574;DHT22;7888;46.748;8.102;2023-09-19T22:56:23;20.70;56.10
15574;DHT22;7888;46.748;8.102;2023-09-19T22:58:50;20.70;55.60
15574;DHT22;7888;46.748;8.102;2023-09-19T23:01:18;20.80;55.40
15574;DHT22;7888;46.748;8.102;2023-09-19T23:03:59;20.70;55.30
15574;DHT22;7888;46.748;8.102;2023-09-19T23:06:38;20.70;55.50
15574;DHT22;7888;46.748;8.102;2023-09-19T23:09:05;20.70;55.60
15574;DHT22;7888;46.748;8.102;2023-09-19T23:11:36;20.70;55.70
15574;DHT22;7888;46.748;8.102;2023-09-19T23:14:04;20.70;55.80
15574;DHT22;7888;46.748;8.102;2023-09-19T23:16:32;20.70;55.80
15574;DHT22;7888;46.748;8.102;2023-09-19T23:19:02;20.80;56.00
15574;DHT22;7888;46.748;8.102;2023-09-19T23:21:42;20.70;56.10
15574;DHT22;7888;46.748;8.102;2023-09-19T23:24:12;20.80;55.90
15574;DHT22;7888;46.748;8.102;2023-09-19T23:26:46;20.70;55.90
15574;DHT22;7888;46.748;8.102;2023-09-19T23:29:17;20.80;56.00
15574;DHT22;7888;46.748;8.102;2023-09-19T23:31:45;20.80;55.90
15574;DHT22;7888;46.748;8.102;2023-09-19T23:34:12;20.80;56.00
15574;DHT22;7888;46.748;8.102;2023-09-19T23:36:39;20.80;55.90
15574;DHT22;7888;46.748;8.102;2023-09-19T23:39:05;20.80;55.90
15574;DHT22;7888;46.748;8.102;2023-09-19T23:41:38;20.70;55.80
15574;DHT22;7888;46.748;8.102;2023-09-19T23:44:07;20.70;55.80
15574;DHT22;7888;46.748;8.102;2023-09-19T23:46:38;20.60;56.00
15574;DHT22;7888;46.748;8.102;2023-09-19T23:49:07;20.70;56.10
15574;DHT22;7888;46.748;8.102;2023-09-19T23:51:37;20.60;56.10
15574;DHT22;7888;46.748;8.102;2023-09-19T23:54:04;20.60;56.10
15574;DHT22;7888;46.748;8.102;2023-09-19T23:56:42;20.60;56.10
15574;DHT22;7888;46.748;8.102;2023-09-19T23:59:10;20.60;56.10
